createdAt,value
2022-10-02T00:02:01.206Z,733.80
2022-10-02T00:04:34.287Z,731.50
2022-10-02T00:07:07.508Z,739.03
2022-10-02T00:09:40.023Z,730.67
2022-10-02T00:12:10.937Z,736.60
2022-10-02T00:14:41.617Z,723.40
2022-10-02T00:17:12.331Z,731.27
2022-10-02T00:19:40.265Z,732.83
2022-10-02T00:22:35.911Z,731.80
2022-10-02T00:25:07.935Z,724.93
2022-10-02T00:27:50.909Z,735.07
2022-10-02T00:30:19.531Z,724.53
2022-10-02T00:32:59.406Z,735.10
2022-10-02T00:35:36.120Z,731.90
2022-10-02T00:38:13.593Z,733.83
2022-10-02T00:40:53.976Z,738.87
2022-10-02T00:43:27.185Z,728.17
2022-10-02T00:46:17.809Z,738.13
2022-10-02T00:48:54.687Z,727.97
2022-10-02T00:51:38.205Z,727.10
2022-10-02T00:54:20.932Z,727.73
2022-10-02T00:56:54.176Z,731.80
2022-10-02T00:59:44.757Z,742.93
2022-10-02T01:02:15.655Z,734.87
2022-10-02T01:04:43.726Z,749.37
2022-10-02T01:07:12.657Z,757.20
2022-10-02T01:09:42.890Z,751.80
2022-10-02T01:12:11.032Z,746.73
2022-10-02T01:14:41.337Z,757.97
2022-10-02T01:17:25.415Z,744.50
2022-10-02T01:19:53.380Z,749.30
2022-10-02T01:22:26.626Z,757.00
2022-10-02T01:24:56.169Z,752.03
2022-10-02T01:27:24.904Z,754.20
2022-10-02T01:29:56.769Z,756.53
2022-10-02T01:32:26.499Z,753.97
2022-10-02T01:34:54.912Z,759.23
2022-10-02T01:37:24.959Z,761.03
2022-10-02T01:39:53.262Z,759.97
2022-10-02T01:42:22.573Z,752.37
2022-10-02T01:44:50.490Z,764.97
2022-10-02T01:47:20.924Z,761.57
2022-10-02T01:49:58.889Z,752.47
2022-10-02T01:52:42.632Z,754.77
2022-10-02T01:55:26.116Z,754.40
2022-10-02T01:58:01.475Z,750.73
2022-10-02T02:00:40.278Z,755.33
2022-10-02T02:03:14.311Z,759.87
2022-10-02T02:05:47.223Z,755.40
2022-10-02T02:08:18.382Z,762.07
2022-10-02T02:10:51.392Z,768.70
2022-10-02T02:13:26.585Z,771.80
2022-10-02T02:15:58.991Z,767.47
2022-10-02T02:18:29.990Z,763.03
2022-10-02T02:21:00.805Z,764.07
2022-10-02T02:23:32.246Z,761.33
2022-10-02T02:26:04.242Z,761.30
2022-10-02T02:28:34.860Z,765.80
2022-10-02T02:31:03.243Z,764.97
2022-10-02T02:33:35.916Z,769.23
2022-10-02T02:36:07.944Z,767.43
2022-10-02T02:38:39.504Z,766.97
2022-10-02T02:41:14.675Z,760.10
2022-10-02T02:43:47.587Z,762.33
2022-10-02T02:46:20.357Z,764.03
2022-10-02T02:48:51.441Z,761.83
2022-10-02T02:51:22.776Z,764.03
2022-10-02T02:53:53.264Z,770.30
2022-10-02T02:56:22.302Z,765.27
2022-10-02T02:58:54.788Z,768.90
2022-10-02T03:01:22.783Z,753.00
2022-10-02T03:03:50.697Z,776.23
2022-10-02T03:06:33.259Z,786.10
2022-10-02T03:09:02.094Z,770.10
2022-10-02T03:11:42.924Z,755.87
2022-10-02T03:14:27.605Z,761.53
2022-10-02T03:17:03.292Z,761.13
2022-10-02T03:19:42.011Z,764.80
2022-10-02T03:22:15.041Z,763.83
2022-10-02T03:24:48.077Z,754.23
2022-10-02T03:27:21.938Z,757.73
2022-10-02T03:29:54.619Z,748.90
2022-10-02T03:32:23.131Z,760.07
2022-10-02T03:34:51.045Z,760.90
2022-10-02T03:37:19.331Z,765.97
2022-10-02T03:39:47.320Z,765.00
2022-10-02T03:42:16.088Z,751.83
2022-10-02T03:44:44.250Z,762.47
2022-10-02T03:47:13.564Z,755.50
2022-10-02T03:49:41.734Z,756.40
2022-10-02T03:52:14.953Z,763.00
2022-10-02T03:54:42.916Z,761.77
2022-10-02T03:57:13.801Z,759.20
2022-10-02T03:59:45.128Z,766.17
2022-10-02T04:02:22.541Z,762.23
2022-10-02T04:04:54.417Z,752.40
2022-10-02T04:07:27.769Z,764.33
2022-10-02T04:10:05.007Z,758.93
2022-10-02T04:12:35.880Z,769.80
2022-10-02T04:15:10.714Z,768.10
2022-10-02T04:17:44.941Z,778.63
2022-10-02T04:20:17.530Z,786.77
2022-10-02T04:22:49.041Z,785.93
2022-10-02T04:25:19.542Z,783.10
2022-10-02T04:27:51.829Z,789.53
2022-10-02T04:30:20.899Z,788.77
2022-10-02T04:32:50.642Z,795.93
2022-10-02T04:35:24.600Z,800.20
2022-10-02T04:38:03.015Z,811.67
2022-10-02T04:40:50.473Z,804.27
2022-10-02T04:43:28.580Z,792.17
2022-10-02T04:46:05.390Z,805.00
2022-10-02T04:49:03.569Z,804.57
2022-10-02T04:51:43.829Z,801.70
2022-10-02T04:54:32.417Z,806.17
2022-10-02T04:57:11.011Z,811.80
2022-10-02T04:59:52.781Z,818.27
2022-10-02T05:02:33.053Z,819.50
2022-10-02T05:05:12.808Z,825.93
2022-10-02T05:08:14.353Z,811.50
2022-10-02T05:11:00.942Z,813.80
2022-10-02T05:13:52.228Z,813.40
2022-10-02T05:16:29.376Z,815.53
2022-10-02T05:19:24.643Z,826.47
2022-10-02T05:22:14.913Z,819.10
2022-10-02T05:24:52.015Z,825.50
2022-10-02T05:27:34.737Z,829.57
2022-10-02T05:30:08.655Z,828.60
2022-10-02T05:33:07.321Z,828.40
2022-10-02T05:35:50.133Z,835.63
2022-10-02T05:38:25.354Z,830.87
2022-10-02T05:41:00.117Z,836.37
2022-10-02T05:43:32.205Z,843.60
2022-10-02T05:46:01.687Z,834.90
2022-10-02T05:48:31.604Z,845.40
2022-10-02T05:51:02.874Z,844.60
2022-10-02T05:53:35.561Z,851.73
2022-10-02T05:56:06.664Z,846.87
2022-10-02T05:58:37.804Z,846.93
2022-10-02T06:01:09.240Z,856.27
2022-10-02T06:03:40.542Z,852.60
2022-10-02T06:06:12.487Z,850.30
2022-10-02T06:08:44.386Z,862.83
2022-10-02T06:11:17.148Z,851.40
2022-10-02T06:13:48.864Z,849.77
2022-10-02T06:16:21.633Z,854.53
2022-10-02T06:18:54.090Z,856.17
2022-10-02T06:21:29.433Z,855.70
2022-10-02T06:24:03.688Z,857.40
2022-10-02T06:26:39.858Z,851.97
2022-10-02T06:29:16.046Z,855.50
2022-10-02T06:31:49.932Z,856.73
2022-10-02T06:34:17.927Z,860.00
2022-10-02T06:36:59.412Z,861.30
2022-10-02T06:39:40.910Z,855.07
2022-10-02T06:42:18.803Z,862.50
2022-10-02T06:44:54.585Z,864.23
2022-10-02T06:47:35.362Z,861.37
2022-10-02T06:50:20.404Z,857.70
2022-10-02T06:52:55.372Z,851.57
2022-10-02T06:55:35.250Z,868.00
2022-10-02T06:58:22.492Z,857.97
2022-10-02T07:00:54.915Z,860.07
2022-10-02T07:03:39.794Z,863.77
2022-10-02T07:06:14.128Z,858.63
2022-10-02T07:08:57.309Z,873.83
2022-10-02T07:11:29.185Z,867.93
2022-10-02T07:14:09.422Z,864.13
2022-10-02T07:16:52.206Z,865.37
2022-10-02T07:19:34.894Z,867.67
2022-10-02T07:22:39.493Z,864.37
2022-10-02T07:25:16.065Z,865.37
2022-10-02T07:27:50.376Z,869.87
2022-10-02T07:30:19.356Z,877.40
2022-10-02T07:32:48.676Z,875.77
2022-10-02T07:35:26.388Z,872.43
2022-10-02T07:38:04.221Z,874.83
2022-10-02T07:40:36.217Z,872.63
2022-10-02T07:43:17.968Z,875.90
2022-10-02T07:45:50.124Z,874.37
2022-10-02T07:48:43.954Z,883.07
2022-10-02T07:51:42.573Z,873.50
2022-10-02T07:54:33.737Z,876.77
2022-10-02T07:57:09.754Z,869.23
2022-10-02T07:59:41.300Z,877.77
2022-10-02T08:02:17.490Z,884.07
2022-10-02T08:04:46.116Z,883.00
2022-10-02T08:07:14.188Z,883.13
2022-10-02T08:09:45.552Z,877.93
2022-10-02T08:12:24.057Z,866.17
2022-10-02T08:14:56.080Z,872.03
2022-10-02T08:17:29.975Z,870.20
2022-10-02T08:20:03.172Z,861.83
2022-10-02T08:22:35.361Z,868.10
2022-10-02T08:25:07.612Z,874.00
2022-10-02T08:27:47.056Z,867.63
2022-10-02T08:30:16.895Z,873.07
2022-10-02T08:32:45.045Z,866.57
2022-10-02T08:35:14.221Z,878.67
2022-10-02T08:37:49.479Z,868.43
2022-10-02T08:40:37.128Z,870.03
2022-10-02T08:43:22.803Z,865.77
2022-10-02T08:46:26.504Z,861.00
2022-10-02T08:49:32.149Z,862.10
2022-10-02T08:52:35.423Z,867.17
2022-10-02T08:55:26.534Z,850.20
2022-10-02T08:58:14.342Z,855.60
2022-10-02T09:00:50.937Z,850.77
2022-10-02T09:04:00.587Z,856.53
2022-10-02T09:06:58.253Z,852.07
2022-10-02T09:09:59.894Z,854.27
2022-10-02T09:12:42.737Z,855.27
2022-10-02T09:15:16.899Z,850.37
2022-10-02T09:17:49.624Z,846.93
2022-10-02T09:20:43.442Z,853.63
2022-10-02T09:23:57.591Z,834.43
2022-10-02T09:26:38.106Z,827.03
2022-10-02T09:29:28.216Z,834.43
2022-10-02T09:32:43.281Z,827.90
2022-10-02T09:35:35.019Z,805.60
2022-10-02T09:38:21.138Z,795.33
2022-10-02T09:41:27.937Z,809.77
2022-10-02T09:44:34.972Z,798.13
2022-10-02T09:47:41.523Z,789.03
2022-10-02T09:50:24.259Z,774.27
2022-10-02T09:53:12.134Z,776.53
2022-10-02T09:55:59.407Z,776.33
2022-10-02T09:59:09.516Z,781.07
2022-10-02T10:02:02.955Z,773.03
2022-10-02T10:05:07.334Z,756.67
2022-10-02T10:08:17.516Z,753.90
2022-10-02T10:11:10.620Z,746.43
2022-10-02T10:13:55.876Z,759.73
2022-10-02T10:16:43.246Z,755.27
2022-10-02T10:19:42.008Z,758.10
2022-10-02T10:22:51.066Z,758.63
2022-10-02T10:25:54.902Z,748.77
2022-10-02T10:29:00.718Z,748.20
2022-10-02T10:32:02.419Z,751.27
2022-10-02T10:35:07.325Z,742.23
2022-10-02T10:38:14.113Z,741.67
2022-10-02T10:41:03.522Z,759.47
2022-10-02T10:44:05.029Z,756.83
2022-10-02T10:46:47.704Z,754.13
2022-10-02T10:49:31.336Z,769.87
2022-10-02T10:52:07.604Z,765.70
2022-10-02T10:54:57.297Z,768.23
2022-10-02T10:57:51.989Z,764.17
2022-10-02T11:00:23.302Z,771.43
2022-10-02T11:03:18.655Z,778.00
2022-10-02T11:06:23.432Z,783.20
2022-10-02T11:09:13.457Z,776.93
2022-10-02T11:11:50.959Z,779.90
2022-10-02T11:14:28.159Z,784.33
2022-10-02T11:17:15.473Z,781.47
2022-10-02T11:19:57.294Z,780.83
2022-10-02T11:22:38.208Z,777.80
2022-10-02T11:25:20.831Z,783.77
2022-10-02T11:28:10.201Z,768.00
2022-10-02T11:30:49.464Z,766.87
2022-10-02T11:33:34.974Z,772.63
2022-10-02T11:36:24.704Z,766.60
2022-10-02T11:39:15.154Z,762.63
2022-10-02T11:42:15.440Z,752.13
2022-10-02T11:44:57.369Z,760.43
2022-10-02T11:47:48.234Z,756.90
2022-10-02T11:50:42.609Z,753.80
2022-10-02T11:53:40.136Z,754.77
2022-10-02T11:56:29.307Z,757.37
2022-10-02T11:59:10.042Z,755.33
2022-10-02T12:01:45.385Z,756.17
2022-10-02T12:04:32.919Z,773.43
2022-10-02T12:07:14.834Z,757.23
2022-10-02T12:09:57.310Z,757.10
2022-10-02T12:12:40.535Z,751.93
2022-10-02T12:15:15.127Z,747.80
2022-10-02T12:18:05.737Z,759.07
2022-10-02T12:21:02.756Z,747.73
2022-10-02T12:23:58.933Z,747.17
2022-10-02T12:26:55.908Z,753.27
2022-10-02T12:29:40.439Z,753.27
2022-10-02T12:32:20.084Z,759.13
2022-10-02T12:34:58.243Z,759.13
2022-10-02T12:37:31.641Z,750.60
2022-10-02T12:40:10.169Z,761.00
2022-10-02T12:43:05.341Z,763.53
2022-10-02T12:45:52.753Z,758.70
2022-10-02T12:48:37.002Z,743.83
2022-10-02T12:51:39.267Z,745.67
2022-10-02T12:54:39.160Z,740.20
2022-10-02T12:57:55.922Z,742.87
2022-10-02T13:00:26.639Z,750.50
2022-10-02T13:03:34.648Z,748.00
2022-10-02T13:06:25.991Z,740.33
2022-10-02T13:09:11.399Z,735.87
2022-10-02T13:11:54.962Z,742.53
2022-10-02T13:14:37.306Z,738.30
2022-10-02T13:17:18.232Z,741.40
2022-10-02T13:19:57.690Z,739.00
2022-10-02T13:22:31.745Z,742.27
2022-10-02T13:25:18.571Z,736.13
2022-10-02T13:27:52.872Z,729.67
2022-10-02T13:30:21.957Z,722.20
2022-10-02T13:33:12.762Z,745.70
2022-10-02T13:36:01.750Z,745.77
2022-10-02T13:38:44.959Z,733.90
2022-10-02T13:41:21.898Z,722.73
2022-10-02T13:44:07.081Z,736.80
2022-10-02T13:46:46.828Z,736.57
2022-10-02T13:49:21.816Z,728.93
2022-10-02T13:51:53.846Z,725.47
2022-10-02T13:54:36.923Z,727.40
2022-10-02T13:57:11.449Z,720.67
2022-10-02T13:59:49.457Z,730.40
2022-10-02T14:02:39.608Z,719.23
2022-10-02T14:05:18.525Z,726.50
2022-10-02T14:08:01.448Z,735.47
2022-10-02T14:10:37.821Z,743.10
2022-10-02T14:13:17.005Z,729.80
2022-10-02T14:15:52.824Z,752.73
2022-10-02T14:18:40.214Z,744.23
2022-10-02T14:21:20.945Z,736.97
2022-10-02T14:23:59.635Z,735.40
2022-10-02T14:26:36.992Z,735.77
2022-10-02T14:29:11.930Z,733.90
2022-10-02T14:32:02.685Z,742.40
2022-10-02T14:34:50.361Z,729.93
2022-10-02T14:37:30.797Z,743.00
2022-10-02T14:40:01.057Z,742.07
2022-10-02T14:42:39.173Z,741.03
2022-10-02T14:45:28.896Z,740.47
2022-10-02T14:48:10.087Z,722.77
2022-10-02T14:50:48.409Z,725.50
2022-10-02T14:53:49.605Z,745.97
2022-10-02T14:56:57.314Z,746.43
2022-10-02T14:59:39.608Z,745.23
2022-10-02T15:02:23.006Z,735.73
2022-10-02T15:04:56.181Z,743.67
2022-10-02T15:07:25.975Z,746.70
2022-10-02T15:10:02.974Z,753.07
2022-10-02T15:12:44.277Z,757.77
2022-10-02T15:15:15.446Z,747.33
2022-10-02T15:17:57.468Z,751.50
2022-10-02T15:20:41.512Z,751.03
2022-10-02T15:23:12.958Z,748.80
2022-10-02T15:25:55.375Z,746.10
2022-10-02T15:28:36.815Z,764.77
2022-10-02T15:31:13.078Z,751.93
2022-10-02T15:33:43.953Z,764.60
2022-10-02T15:36:20.721Z,766.70
2022-10-02T15:39:00.957Z,774.23
2022-10-02T15:41:43.473Z,757.37
2022-10-02T15:44:43.670Z,769.53
2022-10-02T15:47:24.026Z,761.57
2022-10-02T15:50:07.061Z,765.37
2022-10-02T15:52:43.280Z,768.00
2022-10-02T15:55:20.721Z,772.63
2022-10-02T15:57:59.170Z,768.97
2022-10-02T16:00:29.735Z,757.77
2022-10-02T16:03:13.547Z,760.37
2022-10-02T16:05:51.240Z,760.60
2022-10-02T16:08:41.029Z,780.90
2022-10-02T16:11:20.481Z,774.57
2022-10-02T16:13:56.771Z,761.53
2022-10-02T16:16:49.933Z,779.37
2022-10-02T16:19:24.299Z,771.53
2022-10-02T16:22:05.020Z,776.47
2022-10-02T16:24:44.790Z,774.50
2022-10-02T16:27:21.993Z,778.37
2022-10-02T16:30:02.932Z,769.10
2022-10-02T16:32:40.245Z,771.70
2022-10-02T16:35:48.065Z,783.00
2022-10-02T16:38:19.701Z,783.30
2022-10-02T16:40:56.754Z,781.90
2022-10-02T16:43:48.622Z,784.40
2022-10-02T16:46:25.591Z,773.67
2022-10-02T16:48:57.565Z,783.83
2022-10-02T16:51:36.079Z,782.10
2022-10-02T16:54:15.595Z,770.80
2022-10-02T16:56:47.490Z,773.90
2022-10-02T16:59:20.145Z,787.70
2022-10-02T17:02:15.946Z,773.97
2022-10-02T17:04:45.652Z,773.40
2022-10-02T17:07:24.896Z,785.23
2022-10-02T17:09:56.247Z,786.50
2022-10-02T17:12:29.554Z,780.70
2022-10-02T17:15:00.939Z,778.47
2022-10-02T17:17:47.336Z,782.10
2022-10-02T17:20:21.905Z,785.70
2022-10-02T17:22:56.543Z,784.20
2022-10-02T17:25:29.844Z,778.27
2022-10-02T17:28:01.449Z,783.33
2022-10-02T17:30:31.490Z,789.20
2022-10-02T17:33:13.533Z,782.83
2022-10-02T17:35:48.897Z,784.70
2022-10-02T17:38:33.057Z,791.70
2022-10-02T17:41:20.974Z,788.23
2022-10-02T17:43:58.517Z,789.67
2022-10-02T17:46:50.799Z,776.27
2022-10-02T17:49:27.490Z,767.53
2022-10-02T17:52:21.655Z,775.07
2022-10-02T17:55:14.276Z,778.43
2022-10-02T17:57:56.492Z,784.37
2022-10-02T18:00:26.251Z,786.53
2022-10-02T18:03:12.383Z,785.93
2022-10-02T18:05:52.155Z,785.43
2022-10-02T18:08:41.934Z,799.83
2022-10-02T18:11:13.112Z,791.20
2022-10-02T18:13:59.441Z,800.57
2022-10-02T18:16:47.666Z,781.93
2022-10-02T18:19:28.737Z,782.27
2022-10-02T18:22:10.827Z,776.50
2022-10-02T18:24:52.021Z,786.57
2022-10-02T18:27:37.741Z,780.23
2022-10-02T18:30:13.712Z,783.90
2022-10-02T18:32:57.316Z,779.20
2022-10-02T18:35:49.883Z,779.80
2022-10-02T18:38:27.419Z,772.17
2022-10-02T18:41:05.965Z,777.63
2022-10-02T18:44:01.346Z,780.50
2022-10-02T18:46:44.795Z,778.00
2022-10-02T18:49:38.037Z,775.23
2022-10-02T18:52:23.477Z,787.57
2022-10-02T18:55:06.018Z,773.10
2022-10-02T18:57:47.250Z,771.70
2022-10-02T19:00:19.236Z,792.77
2022-10-02T19:03:04.560Z,792.50
2022-10-02T19:05:36.497Z,788.77
2022-10-02T19:08:15.868Z,804.63
2022-10-02T19:10:50.849Z,799.80
2022-10-02T19:13:27.297Z,802.47
2022-10-02T19:15:58.555Z,790.67
2022-10-02T19:18:38.306Z,803.83
2022-10-02T19:21:15.148Z,796.67
2022-10-02T19:23:48.956Z,808.77
2022-10-02T19:26:22.737Z,792.57
2022-10-02T19:28:56.467Z,798.13
2022-10-02T19:31:28.047Z,814.80
2022-10-02T19:34:02.252Z,810.43
2022-10-02T19:36:38.251Z,809.70
2022-10-02T19:39:14.652Z,816.23
2022-10-02T19:41:46.235Z,812.03
2022-10-02T19:44:21.279Z,809.93
2022-10-02T19:46:53.052Z,808.80
2022-10-02T19:49:28.414Z,811.17
2022-10-02T19:51:56.972Z,826.97
2022-10-02T19:54:28.233Z,821.60
2022-10-02T19:57:03.417Z,829.43
2022-10-02T19:59:43.165Z,825.50
2022-10-02T20:02:20.143Z,815.73
2022-10-02T20:04:56.061Z,821.20
2022-10-02T20:07:26.898Z,821.73
2022-10-02T20:09:57.882Z,828.87
2022-10-02T20:12:33.361Z,820.10
2022-10-02T20:15:05.184Z,826.23
2022-10-02T20:17:34.333Z,837.53
2022-10-02T20:20:04.544Z,833.90
2022-10-02T20:22:38.101Z,828.07
2022-10-02T20:25:10.596Z,830.93
2022-10-02T20:27:46.337Z,821.07
2022-10-02T20:30:18.104Z,835.00
2022-10-02T20:32:51.362Z,839.80
2022-10-02T20:35:24.066Z,821.37
2022-10-02T20:37:54.631Z,822.83
2022-10-02T20:40:25.573Z,833.47
2022-10-02T20:43:01.316Z,832.03
2022-10-02T20:45:36.656Z,827.30
2022-10-02T20:49:06.364Z,818.83
2022-10-02T20:51:49.294Z,821.23
2022-10-02T20:54:28.549Z,817.27
2022-10-02T20:57:49.608Z,820.20
2022-10-02T21:00:23.502Z,806.53
2022-10-02T21:03:07.557Z,830.70
2022-10-02T21:06:11.017Z,827.20
2022-10-02T21:09:04.752Z,814.63
2022-10-02T21:11:52.934Z,817.47
2022-10-02T21:14:53.861Z,827.27
2022-10-02T21:17:45.670Z,814.23
2022-10-02T21:20:53.604Z,823.30
2022-10-02T21:23:55.983Z,819.30
2022-10-02T21:26:44.380Z,822.53
2022-10-02T21:29:44.575Z,828.20
2022-10-02T21:32:46.206Z,814.33
2022-10-02T21:35:17.539Z,814.40
2022-10-02T21:38:04.010Z,825.17
2022-10-02T21:41:02.361Z,823.07
2022-10-02T21:44:04.664Z,807.33
2022-10-02T21:47:11.324Z,806.33
2022-10-02T21:50:08.775Z,806.50
2022-10-02T21:53:28.709Z,810.07
2022-10-02T21:56:42.907Z,788.60
2022-10-02T21:59:51.884Z,798.80
2022-10-02T22:02:31.692Z,795.53
2022-10-02T22:05:37.257Z,800.57
2022-10-02T22:08:13.879Z,802.77
2022-10-02T22:10:47.498Z,811.23
2022-10-02T22:13:23.496Z,812.17
2022-10-02T22:15:58.312Z,809.70
2022-10-02T22:18:32.433Z,800.63
2022-10-02T22:21:12.335Z,798.87
2022-10-02T22:23:58.861Z,800.50
2022-10-02T22:26:37.592Z,790.60
2022-10-02T22:29:10.788Z,796.00
2022-10-02T22:31:53.969Z,796.30
2022-10-02T22:34:32.211Z,803.17
2022-10-02T22:37:11.246Z,789.97
2022-10-02T22:39:42.537Z,796.20
2022-10-02T22:42:14.007Z,806.37
2022-10-02T22:44:45.746Z,789.27
2022-10-02T22:47:16.941Z,798.20
2022-10-02T22:49:51.713Z,794.80
2022-10-02T22:52:22.681Z,792.10
2022-10-02T22:54:57.432Z,786.93
2022-10-02T22:57:34.656Z,785.30
2022-10-02T23:00:13.397Z,793.43
2022-10-02T23:02:46.239Z,782.83
2022-10-02T23:05:16.847Z,780.87
2022-10-02T23:07:49.613Z,786.97
2022-10-02T23:10:25.729Z,780.87
2022-10-02T23:13:00.912Z,787.33
2022-10-02T23:15:41.846Z,789.70
2022-10-02T23:18:19.218Z,784.93
2022-10-02T23:20:52.601Z,782.93
2022-10-02T23:23:23.389Z,786.63
2022-10-02T23:25:56.651Z,788.50
2022-10-02T23:28:26.694Z,786.17
2022-10-02T23:31:03.034Z,784.80
2022-10-02T23:33:40.181Z,784.30
2022-10-02T23:36:21.301Z,784.37
2022-10-02T23:39:02.501Z,773.70
2022-10-02T23:41:40.140Z,775.63
2022-10-02T23:44:21.796Z,776.63
2022-10-02T23:47:21.188Z,779.13
2022-10-02T23:49:52.377Z,776.53
2022-10-02T23:52:51.244Z,773.73
2022-10-02T23:55:45.804Z,773.03
2022-10-02T23:58:30.475Z,757.60
